Time;durP1;ratioP1;P1;durP2;ratioP2;P2;SDS_P1;SDS_P2;PMS_P1;PMS_P2;Temp;Humidity;BMP_temperature;BMP_pressure;BME280_temperature;BME280_humidity;BME280_pressure;Samples;Min_cycle;Max_cycle;Signal;HPM_P1;HPM_P2
2023/08/01 00:01:53;;;;;;;1999.90;999.90;;;;;;;23.65;70.95;99983.00;5033998;28;20116;-70
2023/08/01 00:04:18;;;;;;;1999.90;999.90;;;;;;;23.65;69.43;99978.50;5038802;28;20033;-71
2023/08/01 00:06:44;;;;;;;1999.90;999.90;;;;;;;23.84;68.53;99972.56;5028356;28;20025;-70
2023/08/01 00:09:09;;;;;;;1999.90;999.90;;;;;;;22.51;72.12;99982.63;5042683;28;20040;-70
2023/08/01 00:11:37;;;;;;;1999.90;999.90;;;;;;;22.31;73.55;99964.56;5027246;28;20096;-71
2023/08/01 00:14:02;;;;;;;1999.90;999.90;;;;;;;23.15;70.08;99962.81;5033894;28;20041;-71
2023/08/01 00:16:28;;;;;;;1999.90;999.90;;;;;;;22.39;72.32;99967.53;5044856;28;20280;-71
2023/08/01 00:18:53;;;;;;;1999.90;999.90;;;;;;;22.87;70.46;99962.22;5027614;28;20103;-71
2023/08/01 00:21:18;;;;;;;1999.90;999.90;;;;;;;22.73;70.97;99948.22;5031573;28;20489;-71
2023/08/01 00:23:44;;;;;;;1999.90;999.90;;;;;;;22.84;72.60;99949.09;5031361;28;20025;-70
2023/08/01 00:26:09;;;;;;;1999.90;999.90;;;;;;;23.15;68.93;99944.16;5043126;28;20114;-71
2023/08/01 00:28:36;;;;;;;1999.90;999.90;;;;;;;22.45;72.50;99940.47;5039902;28;20033;-70
2023/08/01 00:31:06;;;;;;;1999.90;999.90;;;;;;;23.25;69.31;99932.78;5041555;28;20037;-70
2023/08/01 00:33:32;;;;;;;1999.90;999.90;;;;;;;22.30;72.26;99931.78;5041048;28;20037;-71
2023/08/01 00:35:57;;;;;;;1999.90;999.90;;;;;;;23.15;68.09;99928.16;5039470;28;20119;-71
2023/08/01 00:38:23;;;;;;;1999.90;999.90;;;;;;;23.19;69.15;99926.09;5043343;28;20163;-72
2023/08/01 00:40:48;;;;;;;1999.90;999.90;;;;;;;23.59;65.55;99919.44;5038672;28;20111;-71
2023/08/01 00:43:13;;;;;;;1999.90;999.90;;;;;;;23.30;65.98;99910.13;5046927;28;20047;-72
2023/08/01 00:45:39;;;;;;;1999.90;999.90;;;;;;;22.41;69.91;99911.53;5028459;28;20037;-71
2023/08/01 00:48:05;;;;;;;1999.90;999.90;;;;;;;23.13;67.16;99914.09;5045501;28;20115;-71
2023/08/01 00:50:30;;;;;;;1999.90;999.90;;;;;;;23.14;68.72;99921.13;5050099;28;20045;-71
2023/08/01 00:52:56;;;;;;;1999.90;999.90;;;;;;;22.96;68.22;99927.84;5046491;28;20113;-71
2023/08/01 00:55:23;;;;;;;1999.90;999.90;;;;;;;22.54;71.51;99917.63;5042076;28;20087;-71
2023/08/01 00:57:48;;;;;;;1999.90;999.90;;;;;;;22.77;69.95;99918.56;5047799;28;20389;-71
2023/08/01 01:00:14;;;;;;;1999.90;999.90;;;;;;;22.55;70.13;99913.19;5046163;28;20073;-71
2023/08/01 01:02:40;;;;;;;1999.90;999.90;;;;;;;22.31;71.47;99916.66;5037861;28;20054;-71
2023/08/01 01:05:06;;;;;;;1999.90;999.90;;;;;;;23.06;66.06;99912.84;5048760;28;20448;-71
2023/08/01 01:07:32;;;;;;;1999.90;999.90;;;;;;;23.05;67.34;99911.13;5030391;28;20038;-71
2023/08/01 01:09:58;;;;;;;1999.90;999.90;;;;;;;23.42;65.96;99913.63;5037034;28;20029;-71
2023/08/01 01:12:24;;;;;;;1999.90;999.90;;;;;;;22.67;69.11;99914.91;5045905;28;20078;-71
2023/08/01 01:14:49;;;;;;;1999.90;999.90;;;;;;;23.92;64.48;99907.94;5049379;28;20040;-72
2023/08/01 01:17:15;;;;;;;1999.90;999.90;;;;;;;23.52;65.27;99914.63;5033687;28;20109;-71
2023/08/01 01:19:40;;;;;;;1999.90;999.90;;;;;;;23.18;66.96;99911.06;5028663;28;20037;-71
2023/08/01 01:22:08;;;;;;;1999.90;999.90;;;;;;;23.54;64.49;99907.31;5045397;28;20109;-71
2023/08/01 01:24:36;;;;;;;1999.90;999.90;;;;;;;22.78;69.98;99912.28;5048212;28;20106;-71
2023/08/01 01:27:04;;;;;;;1999.90;999.90;;;;;;;23.66;66.89;99912.69;5037827;28;20041;-71
2023/08/01 01:29:30;;;;;;;1999.90;999.90;;;;;;;23.65;65.42;99908.31;5040581;28;20581;-72
2023/08/01 01:31:57;;;;;;;1999.90;999.90;;;;;;;23.71;67.02;99905.13;5044721;28;20492;-71
2023/08/01 01:34:24;;;;;;;1999.90;999.90;;;;;;;23.77;65.45;99902.00;5038599;28;20033;-71
2023/08/01 01:36:49;;;;;;;1999.90;999.90;;;;;;;24.22;63.67;99901.94;5026200;28;20571;-71
2023/08/01 01:39:14;;;;;;;1999.90;999.90;;;;;;;23.60;65.60;99899.81;5038472;28;20029;-72
2023/08/01 01:41:40;;;;;;;1999.90;999.90;;;;;;;23.63;65.65;99904.91;5043904;28;20389;-72
2023/08/01 01:44:05;;;;;;;1999.90;999.90;;;;;;;24.61;62.24;99892.56;5029753;28;20087;-71
2023/08/01 01:46:31;;;;;;;1999.90;999.90;;;;;;;23.03;67.88;99903.25;5030530;28;20029;-72
2023/08/01 01:48:57;;;;;;;1999.90;999.90;;;;;;;22.53;71.84;99906.16;5040811;28;20028;-71
2023/08/01 01:51:24;;;;;;;1999.90;999.90;;;;;;;23.29;67.40;99899.59;5045867;28;20033;-72
2023/08/01 01:53:49;;;;;;;1999.90;999.90;;;;;;;22.27;73.36;99901.88;5036024;28;20041;-71
2023/08/01 01:56:15;;;;;;;1999.90;999.90;;;;;;;22.42;72.01;99900.78;5034304;28;20049;-71
2023/08/01 01:58:40;;;;;;;1999.90;999.90;;;;;;;22.75;71.97;99899.22;5030745;28;20128;-71
2023/08/01 02:01:06;;;;;;;1999.90;999.90;;;;;;;22.82;68.77;99895.09;5042533;28;20109;-72
2023/08/01 02:03:31;;;;;;;1999.90;999.90;;;;;;;22.59;72.84;99898.66;5039104;28;20067;-71
2023/08/01 02:05:56;;;;;;;1999.90;999.90;;;;;;;23.03;70.85;99891.75;5046158;28;20116;-72
2023/08/01 02:08:22;;;;;;;1999.90;999.90;;;;;;;22.72;72.02;99894.09;5042421;28;20447;-71
2023/08/01 02:10:48;;;;;;;1999.90;999.90;;;;;;;22.26;74.02;99886.88;5040659;28;20035;-72
2023/08/01 02:13:13;;;;;;;1999.90;999.90;;;;;;;22.46;74.24;99888.06;5029563;28;20036;-71
2023/08/01 02:15:39;;;;;;;1999.90;999.90;;;;;;;23.21;70.05;99895.69;5028591;28;20029;-72
2023/08/01 02:18:04;;;;;;;1999.90;999.90;;;;;;;21.94;76.52;99887.41;5045178;28;20453;-71
2023/08/01 02:20:29;;;;;;;1999.90;999.90;;;;;;;22.93;71.92;99880.09;5028034;28;20029;-72
2023/08/01 02:22:55;;;;;;;1999.90;999.90;;;;;;;23.40;68.57;99877.38;5041357;28;20557;-71
2023/08/01 02:25:20;;;;;;;1999.90;999.90;;;;;;;24.17;65.44;99872.09;5042668;28;20044;-72
2023/08/01 02:27:46;;;;;;;1999.90;999.90;;;;;;;22.76;74.33;99884.91;5041125;28;20401;-71
2023/08/01 02:30:11;;;;;;;1999.90;999.90;;;;;;;22.62;76.38;99893.09;5019217;28;20068;-72
2023/08/01 02:32:37;;;;;;;1999.90;999.90;;;;;;;22.81;75.07;99885.41;5030521;28;20120;-72
2023/08/01 02:35:02;;;;;;;1999.90;999.90;;;;;;;22.60;74.10;99889.69;5047947;28;20033;-71
2023/08/01 02:37:27;;;;;;;1999.90;999.90;;;;;;;22.70;74.89;99880.91;5045899;28;20037;-70
2023/08/01 02:39:53;;;;;;;1999.90;999.90;;;;;;;22.23;77.22;99879.09;5028666;28;20163;-71
2023/08/01 02:42:18;;;;;;;1999.90;999.90;;;;;;;22.43;75.16;99886.47;5044309;28;20062;-71
2023/08/01 02:44:44;;;;;;;1999.90;999.90;;;;;;;22.86;72.12;99885.91;5033366;28;20022;-71
2023/08/01 02:47:09;;;;;;;1999.90;999.90;;;;;;;22.94;68.94;99881.81;5048280;28;20037;-72
2023/08/01 02:49:37;;;;;;;1999.90;999.90;;;;;;;22.63;72.68;99889.50;5033969;28;20035;-72
2023/08/01 02:52:03;;;;;;;1999.90;999.90;;;;;;;23.03;71.56;99886.44;5044594;28;20033;-71
2023/08/01 02:54:29;;;;;;;1999.90;999.90;;;;;;;23.04;74.08;99888.13;5035296;28;20044;-71
2023/08/01 02:56:54;;;;;;;1999.90;999.90;;;;;;;22.87;75.79;99892.94;5037227;28;20032;-72
2023/08/01 02:59:19;;;;;;;1999.90;999.90;;;;;;;22.00;75.84;99894.97;5048423;28;20137;-72
2023/08/01 03:01:45;;;;;;;1999.90;999.90;;;;;;;21.89;78.23;99894.91;5039629;28;20036;-71
2023/08/01 03:04:14;;;;;;;1999.90;999.90;;;;;;;22.43;75.64;99888.31;5042354;28;20033;-71
2023/08/01 03:06:40;;;;;;;1999.90;999.90;;;;;;;22.58;76.13;99896.97;5042300;28;20039;-71
2023/08/01 03:09:08;;;;;;;1999.90;999.90;;;;;;;22.57;74.54;99889.94;5027846;28;20305;-71
2023/08/01 03:11:37;;;;;;;1999.90;999.90;;;;;;;22.92;75.62;99889.09;5032666;28;20033;-71
2023/08/01 03:14:04;;;;;;;1999.90;999.90;;;;;;;22.33;76.97;99888.13;5028714;28;20466;-72
2023/08/01 03:16:30;;;;;;;1999.90;999.90;;;;;;;22.96;72.40;99890.53;5043456;28;20040;-72
2023/08/01 03:18:55;;;;;;;1999.90;999.90;;;;;;;21.77;82.00;99900.13;5036768;28;20034;-72
2023/08/01 03:21:21;;;;;;;1999.90;999.90;;;;;;;22.63;76.21;99897.47;5033725;28;20037;-72
2023/08/01 03:23:46;;;;;;;1999.90;999.90;;;;;;;21.79;79.81;99897.34;5036896;28;20033;-72
2023/08/01 03:26:12;;;;;;;1999.90;999.90;;;;;;;22.32;75.84;99895.22;5043445;28;20091;-72
2023/08/01 03:28:38;;;;;;;1999.90;999.90;;;;;;;22.46;77.54;99894.28;5047728;28;20412;-71
2023/08/01 03:31:03;;;;;;;1999.90;999.90;;;;;;;21.99;75.66;99893.25;5048589;28;20211;-72
2023/08/01 03:33:29;;;;;;;1999.90;999.90;;;;;;;22.02;76.75;99895.69;5042772;28;20029;-71
2023/08/01 03:35:54;;;;;;;1999.90;999.90;;;;;;;23.43;70.47;99899.34;5039787;28;20174;-71
2023/08/01 03:38:20;;;;;;;1999.90;999.90;;;;;;;;;;5037338;28;20466;-72
2023/08/01 03:40:45;;;;;;;1999.90;999.90;;;;;;;21.95;78.21;99905.06;5036898;28;20039;-72
2023/08/01 03:43:10;;;;;;;1999.90;999.90;;;;;;;21.97;78.81;99919.13;5045921;28;20078;-72
2023/08/01 03:45:36;;;;;;;1999.90;999.90;;;;;;;21.70;80.33;99914.81;5035638;28;20104;-72
2023/08/01 03:48:01;;;;;;;1999.90;999.90;;;;;;;22.06;81.58;99918.44;5049230;28;20078;-73
2023/08/01 03:50:27;;;;;;;1999.90;999.90;;;;;;;22.08;79.24;99921.84;5031389;28;20064;-73
2023/08/01 03:52:52;;;;;;;1999.90;999.90;;;;;;;22.19;78.92;99919.25;5039841;28;20029;-72
2023/08/01 03:55:18;;;;;;;1999.90;999.90;;;;;;;22.08;80.43;99913.00;5041641;28;20067;-72
2023/08/01 03:57:43;;;;;;;1999.90;999.90;;;;;;;22.26;78.83;99914.34;5048622;28;20064;-72
2023/08/01 04:00:18;;;;;;;1999.90;999.90;;;;;;;22.64;77.59;99916.00;5050593;28;20132;-72
2023/08/01 04:02:44;;;;;;;1999.90;999.90;;;;;;;22.14;78.18;99909.91;5019689;28;20048;-72
2023/08/01 04:05:09;;;;;;;1999.90;999.90;;;;;;;21.98;80.58;99912.81;5051158;28;20092;-72
2023/08/01 04:07:38;;;;;;;1999.90;999.90;;;;;;;22.35;79.81;99907.50;5038434;28;20021;-72
2023/08/01 04:10:04;;;;;;;1999.90;999.90;;;;;;;21.40;85.35;99921.31;5036835;28;20067;-72
2023/08/01 04:12:32;;;;;;;1999.90;999.90;;;;;;;20.99;86.69;99919.69;5023598;28;20044;-72
2023/08/01 04:14:58;;;;;;;1999.90;999.90;;;;;;;21.74;86.33;99918.97;5035683;28;20037;-70
2023/08/01 04:17:24;;;;;;;1999.90;999.90;;;;;;;22.46;80.11;99898.72;5025976;28;20025;-72
2023/08/01 04:19:49;;;;;;;1999.90;999.90;;;;;;;21.84;81.33;99909.38;5039420;28;20044;-72
2023/08/01 04:22:15;;;;;;;1999.90;999.90;;;;;;;22.75;75.57;99907.19;5040380;28;20060;-72
2023/08/01 04:24:40;;;;;;;1999.90;999.90;;;;;;;22.74;76.62;99910.81;5038933;28;20558;-72
2023/08/01 04:27:05;;;;;;;1999.90;999.90;;;;;;;21.92;83.23;99910.63;5044168;28;20392;-72
2023/08/01 04:29:31;;;;;;;1999.90;999.90;;;;;;;22.20;78.76;99910.31;5044380;28;20408;-71
2023/08/01 04:31:57;;;;;;;1999.90;999.90;;;;;;;21.56;85.12;99910.47;5048539;28;20033;-72
2023/08/01 04:34:22;;;;;;;1999.90;999.90;;;;;;;21.38;83.75;99912.59;5030966;28;20045;-72
2023/08/01 04:36:48;;;;;;;1999.90;999.90;;;;;;;22.20;79.33;99905.00;5037225;28;20033;-71
2023/08/01 04:39:13;;;;;;;1999.90;999.90;;;;;;;21.33;82.92;99904.94;5030138;28;20044;-72
2023/08/01 04:41:39;;;;;;;1999.90;999.90;;;;;;;22.09;80.00;99909.38;5040048;28;20033;-71
2023/08/01 04:44:04;;;;;;;1999.90;999.90;;;;;;;22.25;78.01;99909.13;5045996;28;20576;-71
2023/08/01 04:46:30;;;;;;;1999.90;999.90;;;;;;;22.22;78.33;99906.69;5049604;28;20123;-72
2023/08/01 04:48:55;;;;;;;1999.90;999.90;;;;;;;21.42;83.05;99908.78;5035774;28;20509;-71
2023/08/01 04:51:20;;;;;;;1999.90;999.90;;;;;;;21.47;80.99;99916.41;5039250;28;20119;-72
2023/08/01 04:53:46;;;;;;;1999.90;999.90;;;;;;;21.27;83.07;99920.47;5038606;28;20495;-72
2023/08/01 04:56:11;;;;;;;1999.90;999.90;;;;;;;21.50;79.66;99911.75;5030213;28;20068;-71
2023/08/01 04:58:37;;;;;;;1999.90;999.90;;;;;;;21.98;78.21;99910.16;5028788;28;20033;-71
2023/08/01 05:01:02;;;;;;;1999.90;999.90;;;;;;;21.93;77.29;99912.34;5037824;28;20610;-72
2023/08/01 05:03:27;;;;;;;1999.90;999.90;;;;;;;21.31;79.92;99917.47;5048977;28;20028;-71
2023/08/01 05:05:53;;;;;;;1999.90;999.90;;;;;;;21.75;79.30;99915.34;5046883;28;20464;-71
2023/08/01 05:08:18;;;;;;;1999.90;999.90;;;;;;;21.97;77.16;99913.81;5049667;28;20116;-71
2023/08/01 05:10:44;;;;;;;1999.90;999.90;;;;;;;22.79;72.50;99905.13;5032373;28;20043;-72
2023/08/01 05:13:09;;;;;;;1999.90;999.90;;;;;;;22.03;76.63;99913.34;5037982;28;20035;-71
2023/08/01 05:15:37;;;;;;;1999.90;999.90;;;;;;;22.12;74.89;99918.00;5046599;28;20090;-71
2023/08/01 05:18:03;;;;;;;1999.90;999.90;;;;;;;21.45;79.92;99923.66;5035588;28;20025;-72
2023/08/01 05:20:30;;;;;;;1999.90;999.90;;;;;;;21.19;80.20;99923.66;5042831;28;20033;-73
2023/08/01 05:22:57;;;;;;;1999.90;999.90;;;;;;;21.95;80.45;99923.69;5048072;28;20391;-73
2023/08/01 05:25:23;;;;;;;1999.90;999.90;;;;;;;21.66;78.63;99923.97;5030365;28;20112;-73
2023/08/01 05:27:48;;;;;;;1999.90;999.90;;;;;;;21.01;84.66;99920.44;5047312;28;20037;-73
2023/08/01 05:30:14;;;;;;;1999.90;999.90;;;;;;;21.59;80.26;99925.38;5039542;28;20413;-73
2023/08/01 05:32:40;;;;;;;1999.90;999.90;;;;;;;22.79;75.28;99914.00;5038689;28;20394;-72
2023/08/01 05:35:06;;;;;;;1999.90;999.90;;;;;;;21.18;81.17;99937.88;5029366;28;20025;-73
2023/08/01 05:37:32;;;;;;;1999.90;999.90;;;;;;;22.66;76.72;99930.03;5043903;28;20033;-71
2023/08/01 05:39:57;;;;;;;1999.90;999.90;;;;;;;22.23;75.83;99922.56;5031677;28;20033;-71
2023/08/01 05:42:23;;;;;;;1999.90;999.90;;;;;;;21.55;79.34;99934.53;5041457;28;20040;-71
2023/08/01 05:44:48;;;;;;;1999.90;999.90;;;;;;;21.94;76.56;99935.28;5029346;28;20029;-71
2023/08/01 05:47:13;;;;;;;1999.90;999.90;;;;;;;22.27;74.28;99932.00;5047405;28;20068;-71
2023/08/01 05:49:41;;;;;;;1999.90;999.90;;;;;;;21.43;79.03;99937.06;5039755;28;20038;-70
2023/08/01 05:52:06;;;;;;;1999.90;999.90;;;;;;;22.05;77.50;99945.16;5034506;28;20107;-70
2023/08/01 05:54:32;;;;;;;1999.90;999.90;;;;;;;22.74;73.00;99940.13;5046484;28;20039;-71
2023/08/01 05:56:57;;;;;;;1999.90;999.90;;;;;;;;;;5043229;28;20057;-71
2023/08/01 05:59:23;;;;;;;1999.90;999.90;;;;;;;22.91;70.81;99935.34;5018206;28;20030;-71
2023/08/01 06:01:48;;;;;;;1999.90;999.90;;;;;;;22.04;76.01;99944.31;5027932;28;20033;-70
2023/08/01 06:04:14;;;;;;;1999.90;999.90;;;;;;;22.21;74.93;99943.09;5038152;28;20029;-71
2023/08/01 06:06:39;;;;;;;1999.90;999.90;;;;;;;21.92;74.98;99947.88;5036959;28;20040;-71
2023/08/01 06:09:04;;;;;;;1999.90;999.90;;;;;;;22.38;71.84;99938.38;5036853;28;20111;-71
2023/08/01 06:11:30;;;;;;;1999.90;999.90;;;;;;;22.32;71.82;99934.31;5029715;28;20029;-71
2023/08/01 06:13:56;;;;;;;1999.90;999.90;;;;;;;22.75;72.60;99941.81;5062337;28;20033;-71
2023/08/01 06:16:21;;;;;;;1999.90;999.90;;;;;;;22.78;69.92;99941.59;5027855;28;20033;-71
2023/08/01 06:18:47;;;;;;;1999.90;999.90;;;;;;;22.19;71.55;99951.19;5032530;28;20022;-71
2023/08/01 06:21:12;;;;;;;1999.90;999.90;;;;;;;23.15;66.66;99954.81;5042597;28;20029;-71
2023/08/01 06:23:37;;;;;;;1999.90;999.90;;;;;;;23.03;68.32;99950.38;5047803;28;20396;-70
2023/08/01 06:26:03;;;;;;;1999.90;999.90;;;;;;;23.76;67.35;99955.47;5045506;28;20494;-69
2023/08/01 06:28:28;;;;;;;1999.90;999.90;;;;;;;22.83;68.18;99944.75;5029336;28;20127;-70
2023/08/01 06:30:54;;;;;;;1999.90;999.90;;;;;;;22.31;70.92;99953.91;5027841;28;20029;-70
2023/08/01 06:33:19;;;;;;;1999.90;999.90;;;;;;;22.88;69.48;99942.56;5033398;28;20182;-71
2023/08/01 06:35:45;;;;;;;1999.90;999.90;;;;;;;23.57;66.54;99948.06;5041967;28;20022;-71
2023/08/01 06:38:10;;;;;;;1999.90;999.90;;;;;;;22.61;69.08;99955.31;5034537;28;20079;-71
2023/08/01 06:40:36;;;;;;;1999.90;999.90;;;;;;;23.38;66.53;99952.16;5025508;28;20029;-70
2023/08/01 06:43:01;;;;;;;1999.90;999.90;;;;;;;23.84;66.05;99964.56;5045111;28;20119;-71
2023/08/01 06:45:27;;;;;;;1999.90;999.90;;;;;;;23.09;69.19;99965.88;5049713;28;20035;-72
2023/08/01 06:47:52;;;;;;;1999.90;999.90;;;;;;;23.00;68.24;99962.13;5015969;28;20493;-72
2023/08/01 06:50:18;;;;;;;1999.90;999.90;;;;;;;23.28;68.52;99960.03;5056889;28;20398;-72
2023/08/01 06:52:43;;;;;;;1999.90;999.90;;;;;;;23.94;66.57;99958.53;5039929;28;20033;-71
2023/08/01 06:55:09;;;;;;;1999.90;999.90;;;;;;;23.66;67.16;99966.03;5047895;28;20057;-72
2023/08/01 06:57:38;;;;;;;1999.90;999.90;;;;;;;22.62;71.63;99970.34;5031815;28;20044;-72
2023/08/01 07:00:04;;;;;;;1999.90;999.90;;;;;;;22.19;73.82;99983.13;5025791;28;20037;-71
2023/08/01 07:02:30;;;;;;;1999.90;999.90;;;;;;;22.06;75.14;99982.31;5036810;28;20462;-72
2023/08/01 07:04:55;;;;;;;1999.90;999.90;;;;;;;23.07;71.39;99983.81;5044293;28;20037;-71
2023/08/01 07:07:21;;;;;;;1999.90;999.90;;;;;;;24.58;62.76;99975.59;5043989;28;20431;-72
2023/08/01 07:09:46;;;;;;;1999.90;999.90;;;;;;;25.07;58.37;99987.56;5027933;28;20064;-73
2023/08/01 07:12:11;;;;;;;1999.90;999.90;;;;;;;25.14;55.98;99988.78;5031509;28;20036;-72
2023/08/01 07:14:37;;;;;;;1999.90;999.90;;;;;;;26.22;55.27;99981.28;5038740;28;20032;-72
2023/08/01 07:17:02;;;;;;;2.78;0.82;;;;;;;25.12;55.80;99989.88;5030413;28;20037;-71
2023/08/01 07:19:28;;;;;;;3.97;1.98;;;;;;;26.65;53.26;99973.88;5027031;28;20611;-71
2023/08/01 07:21:53;;;;;;;4.13;0.88;;;;;;;27.81;49.25;99982.75;5023371;28;20025;-71
2023/08/01 07:24:19;;;;;;;4.43;1.45;;;;;;;25.24;53.76;99986.16;5028998;28;20591;-70
2023/08/01 07:26:44;;;;;;;5.57;1.65;;;;;;;24.08;56.29;99990.28;5014298;28;20014;-72
2023/08/01 07:29:11;;;;;;;2.42;0.85;;;;;;;25.39;52.55;99982.19;5030617;28;20386;-72
2023/08/01 07:31:37;;;;;;;3.92;1.00;;;;;;;26.93;50.30;99972.22;5038469;28;20032;-72
2023/08/01 07:34:02;;;;;;;1999.90;999.90;;;;;;;27.11;47.39;99983.06;5049864;28;20385;-71
2023/08/01 07:36:28;;;;;;;1999.90;999.90;;;;;;;25.90;49.10;99990.34;5035784;28;20036;-72
2023/08/01 07:38:54;;;;;;;1999.90;999.90;;;;;;;26.59;48.26;99981.47;5031554;28;20033;-71
2023/08/01 07:41:19;;;;;;;1999.90;999.90;;;;;;;25.19;52.22;99989.19;5044974;28;20033;-72
2023/08/01 07:43:45;;;;;;;1999.90;999.90;;;;;;;24.08;54.35;99994.78;5040297;28;20033;-71
2023/08/01 07:46:11;;;;;;;1999.90;999.90;;;;;;;25.59;52.23;99992.16;5019398;28;20289;-71
2023/08/01 07:48:37;;;;;;;1999.90;999.90;;;;;;;26.33;48.16;99991.03;5037802;28;20033;-72
2023/08/01 07:51:05;;;;;;;1999.90;999.90;;;;;;;24.96;51.33;99984.97;5030435;28;20044;-72
2023/08/01 07:53:30;;;;;;;1999.90;999.90;;;;;;;26.37;49.97;99997.81;5039818;28;20473;-72
2023/08/01 07:55:56;;;;;;;1999.90;999.90;;;;;;;26.27;48.69;99999.63;5030081;28;20061;-72
2023/08/01 07:58:21;;;;;;;1999.90;999.90;;;;;;;26.28;48.96;99998.63;5026792;28;20025;-71
2023/08/01 08:00:47;;;;;;;1999.90;999.90;;;;;;;25.23;49.67;100009.34;5031836;28;20061;-72
2023/08/01 08:03:12;;;;;;;1999.90;999.90;;;;;;;26.78;46.95;100003.09;5061835;28;20045;-72
2023/08/01 08:05:38;;;;;;;1999.90;999.90;;;;;;;26.02;47.29;100005.34;5029901;28;20029;-71
2023/08/01 08:08:05;;;;;;;1999.90;999.90;;;;;;;26.00;48.15;100001.06;5031238;28;20093;-73
2023/08/01 08:10:33;;;;;;;1999.90;999.90;;;;;;;25.56;48.54;100004.81;5049838;28;20024;-72
2023/08/01 08:12:59;;;;;;;1999.90;999.90;;;;;;;25.52;50.49;100006.03;5036954;28;20023;-72
2023/08/01 08:15:26;;;;;;;1999.90;999.90;;;;;;;25.63;49.55;100009.63;5038137;28;20029;-71
2023/08/01 08:17:51;;;;;;;1999.90;999.90;;;;;;;26.53;48.37;100008.84;5036526;28;20029;-71
2023/08/01 08:20:16;;;;;;;1999.90;999.90;;;;;;;26.10;48.62;100011.84;5030958;28;20033;-72
2023/08/01 08:22:42;;;;;;;1999.90;999.90;;;;;;;26.77;47.32;100015.66;5029293;28;20032;-73
2023/08/01 08:25:07;;;;;;;1999.90;999.90;;;;;;;26.76;46.76;100011.28;5026364;28;20462;-72
2023/08/01 08:27:33;;;;;;;1999.90;999.90;;;;;;;25.71;47.91;100023.19;5016987;28;20021;-72
2023/08/01 08:29:59;;;;;;;1999.90;999.90;;;;;;;25.31;48.92;100021.25;5027288;28;20104;-72
2023/08/01 08:32:25;;;;;;;1999.90;999.90;;;;;;;25.11;50.56;100010.41;5030785;28;20116;-72
2023/08/01 08:34:52;;;;;;;1999.90;999.90;;;;;;;25.18;51.12;100016.94;5029920;28;20607;-72
2023/08/01 08:37:18;;;;;;;1999.90;999.90;;;;;;;24.83;52.22;100028.75;5029497;28;20454;-72
2023/08/01 08:39:43;;;;;;;1999.90;999.90;;;;;;;24.01;53.08;100037.13;5030166;28;20040;-74
2023/08/01 08:42:10;;;;;;;1999.90;999.90;;;;;;;23.90;53.82;100031.78;5038951;28;20040;-73
2023/08/01 08:44:43;;;;;;;1999.90;999.90;;;;;;;24.81;52.13;100030.72;5044007;28;20025;-72
2023/08/01 08:47:10;;;;;;;1999.90;999.90;;;;;;;24.82;51.06;100037.72;5030421;28;20083;-72
2023/08/01 08:49:37;;;;;;;1999.90;999.90;;;;;;;24.11;53.97;100043.44;5029207;28;20025;-73
2023/08/01 08:52:03;;;;;;;1999.90;999.90;;;;;;;25.71;50.39;100045.44;5034437;28;20032;-73
2023/08/01 08:54:31;;;;;;;1999.90;999.90;;;;;;;27.23;47.08;100022.16;5050452;28;20036;-72
2023/08/01 08:56:57;;;;;;;1999.90;999.90;;;;;;;26.08;47.13;100026.19;5051244;28;20374;-72
2023/08/01 08:59:25;;;;;;;1999.90;999.90;;;;;;;25.27;48.71;100039.38;5026412;28;20099;-72
2023/08/01 09:01:50;;;;;;;1999.90;999.90;;;;;;;26.06;47.63;100035.34;5043452;28;20021;-73
2023/08/01 09:04:16;;;;;;;1999.90;999.90;;;;;;;26.79;45.42;100037.84;5031955;28;20508;-72
2023/08/01 09:06:48;;;;;;;1999.90;999.90;;;;;;;25.96;47.42;100037.13;5026503;28;20089;-73
2023/08/01 09:09:14;;;;;;;1999.90;999.90;;;;;;;26.50;45.83;100041.28;5040265;28;20088;-73
2023/08/01 09:11:49;;;;;;;1999.90;999.90;;;;;;;26.82;45.14;100045.59;5045863;28;20116;-72
2023/08/01 09:14:15;;;;;;;1999.90;999.90;;;;;;;26.66;44.41;100031.84;5037947;28;20132;-73
2023/08/01 09:16:42;;;;;;;1999.90;999.90;;;;;;;26.04;45.35;100031.97;5049619;28;20441;-72
2023/08/01 09:19:08;;;;;;;1999.90;999.90;;;;;;;25.95;46.99;100035.41;5045962;28;20025;-73
2023/08/01 09:21:38;;;;;;;1999.90;999.90;;;;;;;26.80;45.57;100036.81;5029225;28;20102;-72
2023/08/01 09:24:18;;;;;;;1999.90;999.90;;;;;;;27.71;43.03;100041.84;5030776;28;20025;-73
2023/08/01 09:26:45;;;;;;;1999.90;999.90;;;;;;;29.24;40.53;100024.28;5026386;28;20079;-73
2023/08/01 09:29:10;;;;;;;1999.90;999.90;;;;;;;26.58;44.99;100057.53;5045423;28;20539;-74
2023/08/01 09:31:40;;;;;;;1999.90;999.90;;;;;;;27.69;43.59;100053.72;5033929;28;20037;-72
2023/08/01 09:34:18;;;;;;;1999.90;999.90;;;;;;;28.00;42.11;100045.44;5040560;28;20025;-72
2023/08/01 09:36:43;;;;;;;1999.90;999.90;;;;;;;27.51;42.47;100050.94;5028412;28;20053;-72
2023/08/01 09:39:19;;;;;;;1999.90;999.90;;;;;;;27.01;42.21;100059.97;5029517;28;20064;-73
2023/08/01 09:41:45;;;;;;;1999.90;999.90;;;;;;;27.34;41.93;100060.53;5024003;28;20037;-72
2023/08/01 09:44:12;;;;;;;1999.90;999.90;;;;;;;27.65;41.89;100063.06;5030445;28;20035;-73
2023/08/01 09:46:37;;;;;;;1999.90;999.90;;;;;;;26.94;42.62;100065.03;5030056;28;20029;-73
2023/08/01 09:49:10;;;;;;;1999.90;999.90;;;;;;;26.46;42.72;100074.69;5039233;28;20021;-73
2023/08/01 09:51:45;;;;;;;;;;;;;;;27.09;42.50;100076.19;5030174;28;20478;-74
2023/08/01 09:54:11;;;;;;;1999.90;999.90;;;;;;;27.59;41.63;100065.31;5031067;28;19959;-73
2023/08/01 09:56:37;;;;;;;1999.90;999.90;;;;;;;28.47;40.82;100074.94;5028550;28;20037;-73
2023/08/01 09:59:03;;;;;;;1999.90;999.90;;;;;;;29.51;39.84;100072.75;5034545;28;20031;-72
2023/08/01 10:01:32;;;;;;;1999.90;999.90;;;;;;;27.48;42.45;100073.53;5039477;28;20018;-73
2023/08/01 10:03:58;;;;;;;1999.90;999.90;;;;;;;26.18;43.06;100074.44;5030264;28;20029;-73
2023/08/01 10:06:29;;;;;;;1999.90;999.90;;;;;;;26.30;44.08;100077.03;5030014;28;20026;-72
2023/08/01 10:08:54;;;;;;;1999.90;999.90;;;;;;;26.25;43.41;100074.75;5031023;28;20025;-73
2023/08/01 10:11:22;;;;;;;1999.90;999.90;;;;;;;26.62;43.08;100070.63;5041140;28;20036;-73
2023/08/01 10:13:48;;;;;;;1999.90;999.90;;;;;;;26.86;44.21;100079.16;5027279;28;20029;-73
2023/08/01 10:16:14;;;;;;;1999.90;999.90;;;;;;;26.33;44.41;100093.66;5029494;28;20099;-73
2023/08/01 10:18:40;;;;;;;1999.90;999.90;;;;;;;26.97;42.35;100080.00;5029158;28;20025;-72
2023/08/01 10:21:08;;;;;;;1999.90;999.90;;;;;;;26.02;43.61;100079.44;5046496;28;20033;-73
2023/08/01 10:23:37;;;;;;;1999.90;999.90;;;;;;;27.00;43.35;100079.75;5039308;28;20040;-73
2023/08/01 10:26:07;;;;;;;1999.90;999.90;;;;;;;27.68;42.46;100093.13;5030910;28;20033;-74
2023/08/01 10:28:40;;;;;;;1999.90;999.90;;;;;;;27.68;42.18;100081.56;5029678;28;20021;-73
2023/08/01 10:31:13;;;;;;;1999.90;999.90;;;;;;;26.59;42.52;100102.06;5031917;28;20784;-74
2023/08/01 10:33:38;;;;;;;;;;;;;;;28.33;41.73;100091.53;5038375;28;20035;-73
2023/08/01 10:36:22;;;;;;;1999.90;999.90;;;;;;;26.86;41.94;100091.72;5029359;28;19963;-74
2023/08/01 10:38:56;;;;;;;1999.90;999.90;;;;;;;26.37;43.43;100091.56;5029146;28;20029;-72
2023/08/01 10:41:32;;;;;;;1999.90;999.90;;;;;;;26.84;42.63;100099.06;5029334;28;20115;-73
2023/08/01 10:44:15;;;;;;;1999.90;999.90;;;;;;;28.23;41.96;100094.25;5027692;28;20496;-73
2023/08/01 10:47:05;;;;;;;1999.90;999.90;;;;;;;27.09;41.89;100105.69;5043637;28;20024;-74
2023/08/01 10:49:42;;;;;;;1999.90;999.90;;;;;;;26.12;42.97;100107.13;5047788;28;20132;-74
2023/08/01 10:52:17;;;;;;;1999.90;999.90;;;;;;;27.04;41.43;100111.50;5049959;28;20029;-73